HALF-HOURLY OBSERVATIONS INDEX

090

West Coast

AIREYS INLET

Site: 090180
Alt: 105.0m
41km SW of GEELONG


  Time     Wind        Temp  DP   Baro     Rain since   Rain past  Vis(m), Cloud(base in m), Weather
  local        km/h                         9am  last   hr   10m    
Mon 11:00  SSE 17/ 30  17.1  7.5  ------    0.0   0.0   0.0   0.0   ----- 
Mon 11:30  SSE 19/ 28  18.5  7.9  ------    0.0   0.0   0.0   0.0   ----- 
Mon 12:00  SSE 17/ 24  19.0  8.4  ------    0.0   0.0   0.0   0.0   ----- 
Mon 12:30  SSE 15/ 24  19.0  8.1  ------    0.0   0.0   0.0   0.0   ----- 
Mon 13:00    S 15/ 28  18.9  7.4  ------    0.0   0.0   0.0   0.0   ----- 
Mon 13:30    S 17/ 26  18.9  8.0  ------    0.0   0.0   0.0   0.0   ----- 
Mon 14:00  SSE 17/ 28  18.6  8.0  ------    0.0   0.0   0.0   0.0   ----- 
Mon 14:30  SSE 15/ 24  17.8  7.8  ------    0.0   0.0   0.0   0.0   ----- 
Mon 15:00  SSE 15/ 28  20.1  8.8  ------    0.0   0.0   0.0   0.0   ----- 
Mon 15:30  SSE 15/ 24  18.2  7.6  ------    0.0   0.0   0.0   0.0   ----- 
Mon 16:00  SSE 15/ 24  18.2  8.2  ------    0.0   0.0   0.0   0.0   ----- 
Mon 16:30  SSE 17/ 24  17.6  7.4  ------    0.0   0.0   0.0   0.0   ----- 

CAPE NELSON LIGHTHOUSE

Site: 090184
Alt: 45.4m
11km SSW of PORTLAND


  Time     Wind        Temp  DP   Baro     Rain since   Rain past  Vis(m), Cloud(base in m), Weather
  local        km/h                         9am  last   hr   10m    
Mon 11:00   SE 17/ 28  17.4  9.6  1021.6    0.0   0.0   0.0   0.0   ----- 
Mon 11:30   SE 17/ 24  17.6 10.5  1021.5    0.0   0.0   0.0   0.0   ----- 
Mon 12:00  ESE 17/ 26  17.9  9.3  1021.6    0.0   0.0   0.0   0.0   ----- 
Mon 12:30   SE 19/ 26  17.9  9.5  1021.3    0.0   0.0   0.0   0.0   ----- 
Mon 13:00   SE 17/ 28  18.5  9.0  1021.5    0.0   0.0   0.0   0.0   ----- 
Mon 13:30   SE 19/ 28  17.6  9.5  1021.4    0.0   0.0   0.0   0.0   ----- 
Mon 14:00  ESE 17/ 28  18.1  9.2  1021.3    0.0   0.0   0.0   0.0   ----- 
Mon 14:30  ESE 17/ 26  18.5  8.7  1021.1    0.0   0.0   0.0   0.0   ----- 
Mon 15:00   SE 17/ 26  17.6  9.0  1020.9    0.0   0.0   0.0   0.0   ----- 
Mon 15:30  ESE 19/ 28  17.4  9.3  1021.0    0.0   0.0   0.0   0.0   ----- 
Mon 16:00   SE 20/ 37  16.7  8.9  1020.3    0.0   0.0   0.0   0.0   ----- 
Mon 16:30   SE 24/ 33  16.5  9.2  1019.9    0.0   0.0   0.0   0.0   ----- 

CAPE OTWAY LIGHTHOUSE

Site: 090015
Alt: 82.0m
58km S of COLAC


  Time     Wind        Temp  DP   Baro     Rain since   Rain past  Vis(m), Cloud(base in m), Weather
  local        km/h                         9am  last   hr   10m    
Mon 11:00  WSW 11/ 20  16.5  9.2  1021.0    0.0   0.0   0.0   0.0   ----- 
Mon 11:30   SW 11/ 19  18.5  9.3  1021.3    0.0   0.0   0.0   0.0   ----- 
Mon 12:00  SSE 13/ 19  18.7  8.9  1021.5    0.0   0.0   0.0   0.0   ----- 
Mon 12:30  SSW 13/ 22  19.0  8.6  1021.4    0.0   0.0   0.0   0.0   ----- 
Mon 13:00    S 11/ 19  19.2  9.4  1021.3    0.0   0.0   0.0   0.0   ----- 
Mon 13:30  SSE 11/ 17  19.7  8.7  1021.3    0.0   0.0   0.0   0.0   ----- 
Mon 14:00    S 11/ 19  19.1  9.0  1021.0    0.0   0.0   0.0   0.0   ----- 
Mon 14:30  WSW  9/ 15  17.7  9.3  1020.9    0.0   0.0   0.0   0.0   ----- 
Mon 15:00  SSW  9/ 19  19.3 10.3  1020.9    0.0   0.0   0.0   0.0   ----- 
Mon 15:30    S 11/ 17  19.7  9.6  1020.8    0.0   0.0   0.0   0.0   ----- 
Mon 16:00    S 11/ 19  18.5  9.3  1020.6    0.0   0.0   0.0   0.0   ----- 
Mon 16:30  SSE 13/ 19  17.7  8.8  1020.4    0.0   0.0   0.0   0.0   ----- 

CASTERTON

Site: 090182
Alt: 130.6m
63km WNW of HAMILTON


  Time     Wind        Temp  DP   Baro     Rain since   Rain past  Vis(m), Cloud(base in m), Weather
  local        km/h                         9am  last   hr   10m    
Mon 11:00  SSE 19/ 30  18.0  8.8  1020.0    0.0   0.0   0.0   0.0   ----- 
Mon 11:30   SE 20/ 32  18.4  8.7  1020.0    0.0   0.0   0.0   0.0   ----- 
Mon 12:00  SSE 20/ 30  19.1  8.1  1019.6    0.0   0.0   0.0   0.0   ----- 
Mon 12:30  ESE 20/ 30  19.9  8.3  1019.4    0.0   0.0   0.0   0.0   ----- 
Mon 13:00    S 20/ 30  21.4  9.0  1019.2    0.0   0.0   0.0   0.0   ----- 
Mon 13:30    S 19/ 20  20.9  8.2  1019.0    0.0   0.0   0.0   0.0   ----- 
Mon 14:00  SSE 22/ 32  21.5  8.1  1018.8    0.0   0.0   0.0   0.0   ----- 
Mon 14:30    E 19/ 26  23.4  8.7  1018.5    0.0   0.0   0.0   0.0   ----- 
Mon 15:00  ESE 17/ 28  22.5  7.9  1018.3    0.0   0.0   0.0   0.0   ----- 
Mon 15:30  ESE 20/ 28  22.7  7.7  1018.1    0.0   0.0   0.0   0.0   ----- 
Mon 16:00  SSE 20/ 28  22.7  8.0  1017.7    0.0   0.0   0.0   0.0   ----- 
Mon 16:30  ESE 24/ 33  22.2  7.6  1017.5    0.0   0.0   0.0   0.0   ----- 

COLAC (MOUNT GELLIBRAND)

Site: 090035
Alt: 261.0m
22km ENE of COLAC


  Time     Wind        Temp  DP   Baro     Rain since   Rain past  Vis(m), Cloud(base in m), Weather
  local        km/h                         9am  last   hr   10m    
Mon 11:00    S 17/ 26  17.3  9.2  1020.6    0.0   0.0   0.0   0.0   ----- 
Mon 11:30  SSE 15/ 26  17.6  8.5  1020.7    0.0   0.0   0.0   0.0   ----- 
Mon 12:00   SE 20/ 30  18.1  9.2  1020.7    0.0   0.0   0.0   0.0   ----- 
Mon 12:30  SSE 17/ 28  18.7  8.7  1020.5    0.0   0.0   0.0   0.0   ----- 
Mon 13:00  SSE 15/ 24  19.2  8.8  1020.3    0.0   0.0   0.0   0.0   ----- 
Mon 13:30  SSE 17/ 22  19.3  8.9  1020.1    0.0   0.0   0.0   0.0   ----- 
Mon 14:00   SE 17/ 28  18.4  8.1  1020.3    0.0   0.0   0.0   0.0   ----- 
Mon 14:30  SSE 19/ 26  19.1  8.1  1020.0    0.0   0.0   0.0   0.0   ----- 
Mon 15:00   SE 13/ 24  19.4  8.4  1020.0    0.0   0.0   0.0   0.0   ----- 
Mon 15:30    E 20/ 26  19.6  8.6  1019.6    0.0   0.0   0.0   0.0   ----- 
Mon 16:00   SE 20/ 28  18.2  7.6  1019.5    0.0   0.0   0.0   0.0   ----- 
Mon 16:30   SE 20/ 28  18.1  7.8  1019.2    0.0   0.0   0.0   0.0   ----- 

DARTMOOR

Site: 090194
Alt: 51.0m
55km NNW of PORTLAND


  Time     Wind        Temp  DP   Baro     Rain since   Rain past  Vis(m), Cloud(base in m), Weather
  local        km/h                         9am  last   hr   10m    
Mon 11:00    E 19/ 28  19.4  9.3  1020.7    0.0   0.0   0.0   0.0   ----- 
Mon 11:30  SSE 19/ 26  19.8  9.4  1020.8    0.0   0.0   0.0   0.0   ----- 
Mon 12:00   SE 20/ 30  20.5  8.8  1020.4    0.0   0.0   0.0   0.0   ----- 
Mon 12:30   SE 19/ 28  20.9  7.9  1020.3    0.0   0.0   0.0   0.0   ----- 
Mon 13:00  ESE 19/ 32  21.1  8.0  1020.2    0.0   0.0   0.0   0.0   ----- 
Mon 13:30   SE 22/ 32  21.4  8.0  1019.9    0.0   0.0   0.0   0.0   ----- 
Mon 14:00  ESE 22/ 33  20.7  7.0  1019.8    0.0   0.0   0.0   0.0   ----- 
Mon 14:30   SE 22/ 32  22.0  7.8  1019.5    0.0   0.0   0.0   0.0   ----- 
Mon 15:00  ESE 22/ 35  22.0  8.2  1019.4    0.0   0.0   0.0   0.0   ----- 
Mon 15:30   SE 22/ 33  22.1  9.3  1019.3    0.0   0.0   0.0   0.0   ----- 
Mon 16:00   SE 24/ 33  21.4  9.0  1019.2    0.0   0.0   0.0   0.0   ----- 
Mon 16:30  ESE 26/ 35  19.6  8.9  1018.8    0.0   0.0   0.0   0.0   ----- 

HAMILTON AIRPORT

Site: 090173
Alt: 241.1m
11km NNE of HAMILTON


  Time     Wind        Temp  DP   Baro     Rain since   Rain past  Vis(m), Cloud(base in m), Weather
  local        km/h                         9am  last   hr   10m    
Mon 11:00   SE 26/ 37  17.6  8.5  1020.6    0.0   0.0   0.0   0.0   10000 
Mon 11:30   SE 24/ 35  18.4  8.1  1020.6    0.0   0.0   0.0   0.0   10000 
Mon 12:00   SE 24/ 30  19.2  8.5  1020.6    0.0   0.0   0.0   0.0   10000 
Mon 12:30   SE 24/ 37  19.6  8.0  1020.3    0.0   0.0   0.0   0.0   10000 
Mon 13:00   SE 24/ 33  20.2  7.2  1020.0    0.0   0.0   0.0   0.0   10000 
Mon 13:30   SE 26/ 39  20.8  6.7  1019.9    0.0   0.0   0.0   0.0   10000 
Mon 14:00   SE 24/ 35  21.6  6.7  1019.7    0.0   0.0   0.0   0.0   10000 
Mon 14:30   SE 24/ 33  21.9  6.6  1019.6    0.0   0.0   0.0   0.0   10000 
Mon 15:00   SE 22/ 32  22.1  6.3  1019.1    0.0   0.0   0.0   0.0   10000 
Mon 15:30   SE 24/ 35  21.4  6.5  1018.9    0.0   0.0   0.0   0.0   10000 
Mon 16:00  SSE 24/ 32  21.3  7.9  1018.8    0.0   0.0   0.0   0.0   10000 
Mon 16:30  SSE 20/ 30  21.4  7.6  1018.7    0.0   0.0   0.0   0.0   10000 

MORTLAKE RACECOURSE

Site: 090176
Alt: 130.0m
43km NE of WARRNAMBOOL


  Time     Wind        Temp  DP   Baro     Rain since   Rain past  Vis(m), Cloud(base in m), Weather
  local        km/h                         9am  last   hr   10m    
Mon 11:00   SE 15/ 22  17.8  8.4  1020.9    0.0   0.0   0.0   0.0   ----- 
Mon 11:30  SSE 15/ 22  18.7  8.4  1020.8    0.0   0.0   0.0   0.0   ----- 
Mon 12:00  SSE 17/ 32  19.2  9.4  1020.5    0.0   0.0   0.0   0.0   ----- 
Mon 12:30   SE 15/ 24  19.9  7.9  1020.3    0.0   0.0   0.0   0.0   ----- 
Mon 13:00  SSE 15/ 30  20.6  7.9  1020.1    0.0   0.0   0.0   0.0   ----- 
Mon 13:30  ESE 17/ 28  21.3  8.2  1019.8    0.0   0.0   0.0   0.0   ----- 
Mon 14:00   SE 20/ 30  22.1  8.2  1019.7    0.0   0.0   0.0   0.0   ----- 
Mon 14:30   SE 19/ 22  21.7  6.8  1019.8    0.0   0.0   0.0   0.0   ----- 
Mon 15:00   SE 22/ 28  21.6  7.1  1019.4    0.0   0.0   0.0   0.0   ----- 
Mon 15:30  SSE 17/ 26  20.9  7.9  1019.0    0.0   0.0   0.0   0.0   ----- 
Mon 16:00    S 22/ 30  20.5  8.2  1019.0    0.0   0.0   0.0   0.0   ----- 
Mon 16:30    S 24/ 33  20.8  8.1  1018.8    0.0   0.0   0.0   0.0   ----- 

PORT FAIRY AWS

Site: 090175
Alt: 10.0m
22km E of WARRNAMBOOL


  Time     Wind        Temp  DP   Baro     Rain since   Rain past  Vis(m), Cloud(base in m), Weather
  local        km/h                         9am  last   hr   10m    
Mon 11:00   SE 15/ 19  19.0  9.5  1021.4    0.0   0.0   0.0   0.0   ----- 
Mon 11:30   SE 19/ 26  19.0  9.5  1021.3    0.0   0.0   0.0   0.0   ----- 
Mon 12:00   SE 19/ 24  19.8  9.7  1021.3    0.0   0.0   0.0   0.0   ----- 
Mon 12:30   SE 19/ 24  19.8 10.5  1021.2    0.0   0.0   0.0   0.0   ----- 
Mon 13:00   SE 24/ 32  19.6 10.3  1020.9    0.0   0.0   0.0   0.0   ----- 
Mon 13:30   SE 22/ 30  20.1 10.5  1021.1    0.0   0.0   0.0   0.0   ----- 
Mon 14:00   SE 20/ 28  19.4  9.9  1021.1    0.0   0.0   0.0   0.0   ----- 
Mon 14:30   SE 20/ 28  19.0  9.8  1021.0    0.0   0.0   0.0   0.0   ----- 
Mon 15:00   SE 20/ 32  19.5  9.7  1020.7    0.0   0.0   0.0   0.0   ----- 
Mon 15:30   SE 22/ 30  18.3 10.2  1020.4    0.0   0.0   0.0   0.0   ----- 
Mon 16:00   SE 20/ 28  17.8  9.7  1020.5    0.0   0.0   0.0   0.0   ----- 
Mon 16:30   SE 22/ 32  18.1 10.0  1019.8    0.0   0.0   0.0   0.0   ----- 

PORTLAND (CASHMORE AIRPORT)

Site: 090171
Alt: 80.9m
12km WNW of PORTLAND


  Time     Wind        Temp  DP   Baro     Rain since   Rain past  Vis(m), Cloud(base in m), Weather
  local        km/h                         9am  last   hr   10m    
Mon 11:00   SE 19/ 26  16.8  8.0  1021.5    0.0   0.0   0.0   0.0   10000|BR 960 
Mon 11:30  ESE 20/ 30  17.4  7.7  1021.5    0.0   0.0   0.0   0.0   10000|BR 960 
Mon 12:00   SE 17/ 24  18.3  8.8  1021.4    0.0   0.0   0.0   0.0   10000|BR1020 
Mon 12:30  ESE 20/ 33  18.2  7.6  1021.2    0.0   0.0   0.0   0.0   10000|BR1020 
Mon 13:00  ESE 17/ 24  18.7  8.1  1021.3    0.0   0.0   0.0   0.0   10000|OC1020 
Mon 13:30  ESE 19/ 30  18.5  8.2  1021.2    0.0   0.0   0.0   0.0   10000|BR1020 
Mon 14:00   SE 20/ 32  18.8  9.3  1021.2    0.0   0.0   0.0   0.0   10000|SC1020 
Mon 14:30  ESE 20/ 33  17.5  7.8  1020.9    0.0   0.0   0.0   0.0   10000 
Mon 15:00   SE 24/ 33  17.5  7.8  1020.7    0.0   0.0   0.0   0.0   10000 
Mon 15:30   SE 20/ 32  17.3  8.2  1020.8    0.0   0.0   0.0   0.0   10000 
Mon 16:00  ESE 24/ 35  17.5  8.4  1020.4    0.0   0.0   0.0   0.0   10000 
Mon 16:30  ESE 22/ 30  17.7  8.0  1020.1    0.0   0.0   0.0   0.0   10000 

PORTLAND NTC AWS

Site: 090192
Alt: 0.0m
1km ESE of PORTLAND


  Time     Wind        Temp  DP   Baro     Rain since   Rain past  Vis(m), Cloud(base in m), Weather
  local        km/h                         9am  last   hr   10m    
Mon 11:00  ESE 19/ 26  17.0----  1021.2   ----  ----  ----  ----   ----- 
Mon 11:30  ESE 19/ 24  16.9----  1021.2   ----  ----  ----  ----   ----- 
Mon 12:00  ESE 19/ 26  16.8----  1021.2   ----  ----  ----  ----   ----- 
Mon 12:30  ESE 22/ 28  16.9----  1021.0   ----  ----  ----  ----   ----- 
Mon 13:00  ESE 20/ 26  17.3----  1021.1   ----  ----  ----  ----   ----- 
Mon 13:30  ESE 22/ 26  17.2----  1021.1   ----  ----  ----  ----   ----- 
Mon 14:00  ESE 20/ 26  17.3----  1021.0   ----  ----  ----  ----   ----- 
Mon 14:30  ESE 24/ 32  17.3----  1020.7   ----  ----  ----  ----   ----- 
Mon 15:00  ESE 24/ 33  16.9----  1020.5   ----  ----  ----  ----   ----- 
Mon 15:30  ESE 24/ 33  16.9----  1020.5   ----  ----  ----  ----   ----- 
Mon 16:00   SE 28/ 35  16.6----  1020.0   ----  ----  ----  ----   ----- 
Mon 16:30  ESE 24/ 32  16.9----  1019.8   ----   0.0   0.0  ----   ----- 

WARRNAMBOOL AIRPORT NDB

Site: 090186
Alt: 70.8m
11km NNW of WARRNAMBOOL


  Time     Wind        Temp  DP   Baro     Rain since   Rain past  Vis(m), Cloud(base in m), Weather
  local        km/h                         9am  last   hr   10m    
Mon 11:00    S 20/ 32  18.5 10.1  1021.2    0.0   0.0   0.0   0.0   10000|OC 960 
Mon 11:30    S 20/ 30  18.6 10.2  1021.2    0.0   0.0   0.0   0.0   10000|BR 960 
Mon 12:00  SSE 22/ 32  19.1  9.0  1021.1    0.0   0.0   0.0   0.0   10000 
Mon 12:30    S 26/ 35  19.1  9.9  1020.9    0.0   0.0   0.0   0.0   10000 
Mon 13:00  SSE 28/ 45  19.8 10.2  1020.7    0.0   0.0   0.0   0.0   10000 
Mon 13:30  SSE 28/ 39  19.4  9.0  1020.8    0.2   0.2   0.2   0.0   10000 
Mon 14:00    S 28/ 37  18.9  8.3  1020.8    0.2   0.0   0.2   0.0   10000 
Mon 14:30    S 28/ 37  19.8  8.8  1020.7    0.2   0.0   0.0   0.0   10000 
Mon 15:00  SSE 26/ 39  19.2  8.5  1020.5    0.2   0.0   0.0   0.0   10000 
Mon 15:30  SSE 32/ 39  17.5  8.6  1020.1    0.2   0.0   0.0   0.0   10000 
Mon 16:00    S 28/ 45  17.4  9.6  1020.2    0.2   0.0   0.0   0.0    9000 
Mon 16:30  SSE 32/ 43  17.3  9.2  1019.6    0.2   0.0   0.0   0.0    9000